Royal Melbourne — WDC2865 — position and weather

sailwx.info

Track history (hours):
 
Tides and Currents Weather Stations Pressure Air Temp Water Temp Dewpoint Dewpoint Depression Visibility Wind Speed Wind Dir Waves Ship Positions

Royal Melbourne

Owner: Harley Marine Services, Inc, Seattle, WA. More information available from US FCC via Universal Licensing System and Coast Guard Vessel Documentation Center.

Last reported at 2015-Sep-05 15:31 UTC. Time now 2015-Sep-05 16:19 UTC.
Position N 37°49' W 122°24'.

Length 30 m; draft 2 m.

Type: Tug. MMSI: 366998830.

Date/timePositionNaut miles runAvg speedWind from/ knotsBaromVisibWave heightAir tempDewpointWater temp
2015-Sep-05 15:31N 37°49' W 122°24'0 0.0
2015-Sep-05 14:33N 37°49' W 122°24'4 3.9
2015-Sep-05 13:33N 37°48' W 122°20'2 1.9
2015-Sep-05 12:31N 37°48' W 122°17'0 0.0
2015-Sep-05 11:31N 37°48' W 122°17'0 0.0
2015-Sep-05 10:31N 37°48' W 122°17'0 0.0
2015-Sep-05 09:31N 37°48' W 122°17'0 0.0
2015-Sep-05 08:31N 37°48' W 122°17'0 0.0
2015-Sep-05 07:31N 37°48' W 122°17'0 0.0
2015-Sep-05 06:31N 37°48' W 122°17'0 0.0
2015-Sep-05 05:28N 37°48' W 122°17'0 0.0
2015-Sep-05 04:31N 37°48' W 122°17'3 3.2
2015-Sep-05 03:33N 37°47' W 122°21'1 1.4
2015-Sep-05 02:33N 37°46' W 122°20'0 0.1
2015-Sep-05 01:33N 37°46' W 122°20'0 0.1
2015-Sep-05 00:33N 37°46' W 122°20'0 0.1
2015-Sep-04 23:33N 37°46' W 122°20'0 0.0
2015-Sep-04 22:33N 37°46' W 122°20'1 1.5
2015-Sep-04 21:33N 37°47' W 122°22'7 7.1
2015-Sep-04 20:33N 37°54' W 122°24'2 2.1
2015-Sep-04 19:33N 37°55' W 122°22'0 0.0
2015-Sep-04 18:33N 37°55' W 122°22'0 0.0
2015-Sep-04 17:33N 37°55' W 122°22'0 0.0
2015-Sep-04 16:30N 37°55' W 122°22'0 0.0
2015-Sep-04 15:33N 37°55' W 122°22'0 0.0
2015-Sep-04 14:30N 37°55' W 122°22'0 0.0
2015-Sep-04 13:30N 37°55' W 122°22'0 0.0
2015-Sep-04 12:33N 37°55' W 122°22'3 3.1
2015-Sep-04 11:33N 37°52' W 122°24'5 5.2
2015-Sep-04 10:33N 37°49' W 122°19'0 0.0
2015-Sep-04 09:31N 37°49' W 122°19'0 0.0
2015-Sep-04 08:31N 37°49' W 122°19'0 0.0
2015-Sep-04 07:31N 37°49' W 122°19'0 0.0
2015-Sep-04 06:31N 37°49' W 122°19'0 0.0
2015-Sep-04 05:31N 37°49' W 122°19'0 0.0
2015-Sep-04 04:31N 37°49' W 122°19'0 0.0
2015-Sep-04 03:33N 37°49' W 122°19'5 5.2
2015-Sep-04 02:33N 37°44' W 122°21'0 0.0
2015-Sep-04 01:32N 37°44' W 122°21'0 0.1
2015-Sep-04 00:32N 37°44' W 122°21'0 0.2
2015-Sep-03 23:32N 37°44' W 122°21'1 1.0
2015-Sep-03 22:33N 37°45' W 122°21'8 7.6
2015-Sep-03 21:33N 37°52' W 122°24'3 3.5
2015-Sep-03 20:33N 37°55' W 122°22'0 0.0
2015-Sep-03 19:31N 37°55' W 122°22'0 0.0
2015-Sep-03 18:31N 37°55' W 122°22'0 0.0
2015-Sep-03 17:31N 37°55' W 122°22'0 0.0
2015-Sep-03 16:31N 37°55' W 122°22'0 0.0
2015-Sep-03 15:31N 37°55' W 122°22'0 0.0
2015-Sep-03 14:31N 37°55' W 122°22'0 0.0
2015-Sep-03 13:25N 37°55' W 122°22'0 0.0
2015-Sep-03 12:25N 37°55' W 122°22'0 0.0
2015-Sep-03 11:31N 37°55' W 122°22'0 0.0
2015-Sep-03 10:31N 37°55' W 122°22'0 0.0
2015-Sep-03 09:32N 37°55' W 122°22'3 3.3
2015-Sep-03 08:34N 37°52' W 122°24'5 5.0
2015-Sep-03 07:33N 37°49' W 122°19'0 0.0
2015-Sep-03 06:31N 37°49' W 122°19'0 0.0
2015-Sep-03 05:31N 37°49' W 122°19'0 0.0
2015-Sep-03 04:31N 37°49' W 122°19'0 0.0
2015-Sep-03 03:33N 37°49' W 122°19'3 3.1
2015-Sep-03 02:33N 37°46' W 122°20'0 0.0
2015-Sep-03 01:28N 37°46' W 122°20'0 0.0
2015-Sep-03 00:28N 37°46' W 122°20'0 0.1
2015-Sep-02 23:34N 37°46' W 122°20'0 0.1
2015-Sep-02 22:33N 37°46' W 122°20'4 4.3
2015-Sep-02 21:33N 37°48' W 122°24'0 0.0
2015-Sep-02 20:31N 37°48' W 122°24'0 0.0
2015-Sep-02 19:31N 37°48' W 122°24'0 0.0
2015-Sep-02 18:31N 37°48' W 122°24'0 0.0
2015-Sep-02 17:31N 37°48' W 122°24'0 0.0
2015-Sep-02 16:31N 37°48' W 122°24'0 0.0
2015-Sep-02 15:31N 37°48' W 122°24'0 0.0
2015-Sep-02 14:33N 37°48' W 122°24'3 2.6
2015-Sep-02 13:33N 37°48' W 122°21'3 2.9
2015-Sep-02 12:31N 37°48' W 122°17'0 0.0
2015-Sep-02 11:31N 37°48' W 122°17'0 0.0
2015-Sep-02 10:31N 37°48' W 122°17'0 0.0
2015-Sep-02 09:31N 37°48' W 122°17'0 0.0
2015-Sep-02 08:31N 37°48' W 122°17'0 0.0
2015-Sep-02 07:31N 37°48' W 122°17'0 0.0
2015-Sep-02 06:31N 37°48' W 122°17'0 0.0
2015-Sep-02 05:31N 37°48' W 122°17'0 0.0
2015-Sep-02 04:31N 37°48' W 122°17'0 0.0
2015-Sep-02 03:31N 37°48' W 122°17'0 0.0
2015-Sep-02 02:31N 37°48' W 122°17'0 0.0
2015-Sep-02 01:31N 37°48' W 122°17'0 0.0
2015-Sep-02 00:31N 37°48' W 122°17'0 0.0
2015-Sep-01 23:31N 37°48' W 122°17'0 0.0
2015-Sep-01 22:31N 37°48' W 122°17'0 0.0
2015-Sep-01 21:31N 37°48' W 122°17'0 0.0
2015-Sep-01 20:31N 37°48' W 122°17'0 0.0
2015-Sep-01 19:31N 37°48' W 122°17'0 0.0
2015-Sep-01 18:31N 37°48' W 122°17'0 0.0
2015-Sep-01 17:31N 37°48' W 122°17'0 0.1
2015-Sep-01 16:33N 37°48' W 122°17'6 5.8
2015-Sep-01 15:33N 37°51' W 122°23'4 4.1
2015-Sep-01 14:33N 37°55' W 122°22'0 0.1
2015-Sep-01 13:33N 37°55' W 122°22'0 0.0
2015-Sep-01 12:33N 37°55' W 122°22'0 0.0
2015-Sep-01 11:33N 37°55' W 122°22'0 0.0
2015-Sep-01 10:33N 37°55' W 122°22'0 0.0
2015-Sep-01 09:24N 37°55' W 122°22'0 0.0
2015-Sep-01 08:30N 37°55' W 122°22'0 0.0
2015-Sep-01 07:33N 37°55' W 122°22'0 0.0
2015-Sep-01 06:33N 37°55' W 122°22'0 0.0
2015-Sep-01 05:33N 37°55' W 122°22'0 0.0
2015-Sep-01 04:33N 37°55' W 122°22'0 0.0
2015-Sep-01 03:33N 37°55' W 122°22'0 0.0
2015-Sep-01 02:33N 37°55' W 122°22'0 0.0
2015-Sep-01 01:33N 37°55' W 122°22'0 0.0
2015-Sep-01 00:33N 37°55' W 122°22'0 0.0
2015-Aug-31 23:33N 37°55' W 122°22'3 3.4
2015-Aug-31 22:33N 37°52' W 122°24'7 6.8
2015-Aug-31 21:34N 37°48' W 122°17'0 0.1
2015-Aug-31 20:31N 37°48' W 122°17'0 0.0
2015-Aug-31 19:31N 37°48' W 122°17'0 0.0
2015-Aug-31 18:25N 37°48' W 122°17'0 0.0
2015-Aug-31 17:31N 37°48' W 122°17'0 0.0
2015-Aug-31 16:33N 37°48' W 122°17'0 0.0
2015-Aug-31 15:33N 37°48' W 122°17'0 0.0
2015-Aug-31 14:33N 37°48' W 122°17'0 0.0
2015-Aug-31 13:33N 37°48' W 122°17'0 0.0
2015-Aug-31 12:33N 37°48' W 122°17'0 0.0
2015-Aug-31 11:33N 37°48' W 122°17'0 0.0
2015-Aug-31 10:33N 37°48' W 122°17'0 0.0
2015-Aug-31 09:33N 37°48' W 122°17'0 0.0
2015-Aug-31 08:32N 37°48' W 122°17'0 0.0
2015-Aug-31 07:32N 37°48' W 122°17'0 0.0
2015-Aug-31 06:32N 37°48' W 122°17'0 0.0
2015-Aug-31 05:32N 37°48' W 122°17'0 0.0
2015-Aug-31 04:32N 37°48' W 122°17'0 0.0
2015-Aug-31 03:32N 37°48' W 122°17'0 0.0
2015-Aug-31 02:32N 37°48' W 122°17'0 0.0
2015-Aug-31 01:32N 37°48' W 122°17'0 0.0
2015-Aug-31 00:32N 37°48' W 122°17'0 0.0
2015-Aug-30 23:32N 37°48' W 122°17'0 0.0
2015-Aug-30 22:32N 37°48' W 122°17'2 2.5
2015-Aug-30 21:33N 37°48' W 122°20'3 3.1
2015-Aug-30 20:33N 37°48' W 122°24'0 0.0
2015-Aug-30 19:33N 37°48' W 122°24'0 0.1
2015-Aug-30 18:27N 37°48' W 122°24'0 0.1
2015-Aug-30 17:33N 37°48' W 122°24'0 0.0
2015-Aug-30 16:33N 37°48' W 122°24'0 0.0
2015-Aug-30 15:32N 37°48' W 122°24'0 0.0
2015-Aug-30 14:33N 37°48' W 122°24'0 0.4
2015-Aug-30 13:33N 37°49' W 122°24'5 5.2
2015-Aug-30 12:33N 37°54' W 122°25'3 2.6
2015-Aug-30 11:33N 37°55' W 122°22'0 0.0
2015-Aug-30 10:33N 37°55' W 122°22'0 0.0
2015-Aug-30 09:33N 37°55' W 122°22'0 0.0
2015-Aug-30 08:30N 37°55' W 122°22'0 0.0
2015-Aug-30 07:33N 37°55' W 122°22'0 0.0
2015-Aug-30 06:33N 37°55' W 122°22'0 0.0
2015-Aug-30 05:33N 37°55' W 122°22'0 0.0
2015-Aug-30 04:30N 37°55' W 122°22'0 0.0
2015-Aug-30 03:30N 37°55' W 122°22'0 0.0
2015-Aug-30 02:33N 37°55' W 122°22'0 0.0
2015-Aug-30 01:33N 37°55' W 122°22'0 0.0
2015-Aug-30 00:30N 37°55' W 122°22'0 0.0
2015-Aug-29 23:33N 37°55' W 122°22'0 0.0
2015-Aug-29 22:33N 37°55' W 122°22'0 0.0
2015-Aug-29 21:30N 37°55' W 122°22'0 0.0
2015-Aug-29 20:33N 37°55' W 122°22'0 0.0
2015-Aug-29 19:30N 37°55' W 122°22'0 0.0
2015-Aug-29 18:30N 37°55' W 122°22'0 0.0
2015-Aug-29 17:33N 37°55' W 122°22'0 0.0
2015-Aug-29 16:32N 37°55' W 122°22'0 0.0
2015-Aug-29 15:32N 37°55' W 122°22'0 0.0
2015-Aug-29 14:32N 37°55' W 122°22'0 0.0
2015-Aug-29 13:32N 37°55' W 122°22'0 0.0
2015-Aug-29 12:32N 37°55' W 122°22'0 0.0
2015-Aug-29 11:29N 37°55' W 122°22'1 0.7
2015-Aug-29 10:33N 37°54' W 122°22'6 6.3
2015-Aug-29 09:33N 37°48' W 122°22'2 1.9
2015-Aug-29 08:32N 37°46' W 122°21'0 0.3
2015-Aug-29 07:32N 37°46' W 122°21'0 0.1
2015-Aug-29 06:34N 37°46' W 122°21'2 2.3
2015-Aug-29 05:33N 37°44' W 122°20'1 0.9
2015-Aug-29 04:30N 37°43' W 122°19'0 0.1
2015-Aug-29 03:33N 37°43' W 122°19'0 0.1
2015-Aug-29 02:33N 37°43' W 122°19'0 0.0
2015-Aug-29 01:33N 37°43' W 122°19'3 3.1
2015-Aug-29 00:32N 37°46' W 122°20'0 0.1
2015-Aug-28 23:32N 37°46' W 122°20'0 0.0
2015-Aug-28 22:31N 37°46' W 122°20'0 0.0
2015-Aug-28 21:31N 37°46' W 122°20'0 0.0
2015-Aug-28 20:31N 37°46' W 122°20'1 1.0
2015-Aug-28 19:31N 37°45' W 122°21'0 0.0
2015-Aug-28 18:31N 37°45' W 122°21'0 0.0
2015-Aug-28 17:31N 37°45' W 122°21'0 0.0
2015-Aug-28 16:33N 37°45' W 122°21'0 0.0
2015-Aug-28 15:30N 37°45' W 122°21'0 0.0
2015-Aug-28 14:33N 37°45' W 122°21'0 0.2
2015-Aug-28 13:33N 37°46' W 122°21'0 0.1
2015-Aug-28 12:33N 37°46' W 122°21'0 0.0
2015-Aug-28 11:33N 37°46' W 122°21'2 2.4
2015-Aug-28 10:33N 37°48' W 122°22'7 6.7
2015-Aug-28 09:33N 37°54' W 122°24'2 1.7
2015-Aug-28 08:33N 37°55' W 122°22'0 0.0
2015-Aug-28 07:33N 37°55' W 122°22'0 0.0
2015-Aug-28 06:33N 37°55' W 122°22'0 0.0
2015-Aug-28 05:33N 37°55' W 122°22'0 0.0
2015-Aug-28 04:33N 37°55' W 122°22'0 0.0
2015-Aug-28 03:33N 37°55' W 122°22'0 0.0
2015-Aug-28 02:33N 37°55' W 122°22'0 0.0
2015-Aug-28 01:34N 37°55' W 122°22'4 4.3
2015-Aug-28 00:34N 37°51' W 122°23'7 7.2
2015-Aug-27 23:34N 37°44' W 122°20'0 0.1
2015-Aug-27 22:32N 37°44' W 122°20'0 0.0
2015-Aug-27 21:32N 37°44' W 122°20'0 0.1
2015-Aug-27 20:32N 37°44' W 122°20'0 0.2
2015-Aug-27 19:32N 37°44' W 122°20'0 0.1
2015-Aug-27 18:29N 37°44' W 122°20'0 0.0
2015-Aug-27 17:32N 37°44' W 122°20'0 0.0
2015-Aug-27 16:26N 37°44' W 122°20'0 0.0
2015-Aug-27 15:33N 37°44' W 122°20'7 7.2
2015-Aug-27 14:33N 37°50' W 122°23'5 4.7
2015-Aug-27 13:33N 37°55' W 122°22'0 0.0
2015-Aug-27 12:31N 37°55' W 122°22'0 0.0
2015-Aug-27 11:28N 37°55' W 122°22'0 0.0
2015-Aug-27 10:31N 37°55' W 122°22'0 0.0
2015-Aug-27 09:31N 37°55' W 122°22'0 0.0
2015-Aug-27 08:31N 37°55' W 122°22'0 0.0
2015-Aug-27 07:31N 37°55' W 122°22'3 2.9
2015-Aug-27 06:33N 37°53' W 122°24'9 8.8
2015-Aug-27 05:33N 37°45' W 122°20'0 0.2
2015-Aug-27 04:32N 37°45' W 122°20'0 0.0
2015-Aug-27 03:32N 37°45' W 122°20'0 0.0
2015-Aug-27 02:32N 37°45' W 122°20'0 0.0
2015-Aug-27 01:32N 37°45' W 122°20'0 0.0
2015-Aug-27 00:26N 37°45' W 122°20'0 0.1
2015-Aug-26 23:29N 37°45' W 122°20'0 0.2
2015-Aug-26 22:32N 37°45' W 122°20'0 0.0
2015-Aug-26 21:29N 37°45' W 122°20'0 0.0
2015-Aug-26 20:29N 37°45' W 122°20'2 2.0
2015-Aug-26 19:34N 37°47' W 122°21'7 6.6
2015-Aug-26 18:33N 37°53' W 122°24'3 2.5
2015-Aug-26 17:32N 37°55' W 122°22'0 0.0
2015-Aug-26 16:32N 37°55' W 122°22'  
Track history (hours):
 
Tides and Currents Weather Stations Pressure Air Temp Water Temp Dewpoint Dewpoint Depression Visibility Wind Speed Wind Dir Waves Ship Positions

Royal Melbourne

Owner: Harley Marine Services, Inc, Seattle, WA. More information available from US FCC via Universal Licensing System and Coast Guard Vessel Documentation Center.

Last reported at 2015-Sep-05 15:31 UTC. Time now 2015-Sep-05 16:19 UTC.
Position N 37°49' W 122°24'.

Length 30 m; draft 2 m.

Type: Tug. MMSI: 366998830.

Date/timePositionNaut miles runAvg speedWind from/ knotsBaromVisibWave heightAir tempDewpointWater temp
2015-Sep-05 15:31N 37°49' W 122°24'0 0.0
2015-Sep-05 14:33N 37°49' W 122°24'4 3.9
2015-Sep-05 13:33N 37°48' W 122°20'2 1.9
2015-Sep-05 12:31N 37°48' W 122°17'0 0.0
2015-Sep-05 11:31N 37°48' W 122°17'0 0.0
2015-Sep-05 10:31N 37°48' W 122°17'0 0.0
2015-Sep-05 09:31N 37°48' W 122°17'0 0.0
2015-Sep-05 08:31N 37°48' W 122°17'0 0.0
2015-Sep-05 07:31N 37°48' W 122°17'0 0.0
2015-Sep-05 06:31N 37°48' W 122°17'0 0.0
2015-Sep-05 05:28N 37°48' W 122°17'0 0.0
2015-Sep-05 04:31N 37°48' W 122°17'3 3.2
2015-Sep-05 03:33N 37°47' W 122°21'1 1.4
2015-Sep-05 02:33N 37°46' W 122°20'0 0.1
2015-Sep-05 01:33N 37°46' W 122°20'0 0.1
2015-Sep-05 00:33N 37°46' W 122°20'0 0.1
2015-Sep-04 23:33N 37°46' W 122°20'0 0.0
2015-Sep-04 22:33N 37°46' W 122°20'1 1.5
2015-Sep-04 21:33N 37°47' W 122°22'7 7.1
2015-Sep-04 20:33N 37°54' W 122°24'2 2.1
2015-Sep-04 19:33N 37°55' W 122°22'0 0.0
2015-Sep-04 18:33N 37°55' W 122°22'0 0.0
2015-Sep-04 17:33N 37°55' W 122°22'0 0.0
2015-Sep-04 16:30N 37°55' W 122°22'0 0.0
2015-Sep-04 15:33N 37°55' W 122°22'0 0.0
2015-Sep-04 14:30N 37°55' W 122°22'0 0.0
2015-Sep-04 13:30N 37°55' W 122°22'0 0.0
2015-Sep-04 12:33N 37°55' W 122°22'3 3.1
2015-Sep-04 11:33N 37°52' W 122°24'5 5.2
2015-Sep-04 10:33N 37°49' W 122°19'0 0.0
2015-Sep-04 09:31N 37°49' W 122°19'0 0.0
2015-Sep-04 08:31N 37°49' W 122°19'0 0.0
2015-Sep-04 07:31N 37°49' W 122°19'0 0.0
2015-Sep-04 06:31N 37°49' W 122°19'0 0.0
2015-Sep-04 05:31N 37°49' W 122°19'0 0.0
2015-Sep-04 04:31N 37°49' W 122°19'0 0.0
2015-Sep-04 03:33N 37°49' W 122°19'5 5.2
2015-Sep-04 02:33N 37°44' W 122°21'0 0.0
2015-Sep-04 01:32N 37°44' W 122°21'0 0.1
2015-Sep-04 00:32N 37°44' W 122°21'0 0.2
2015-Sep-03 23:32N 37°44' W 122°21'1 1.0
2015-Sep-03 22:33N 37°45' W 122°21'8 7.6
2015-Sep-03 21:33N 37°52' W 122°24'3 3.5
2015-Sep-03 20:33N 37°55' W 122°22'0 0.0
2015-Sep-03 19:31N 37°55' W 122°22'0 0.0
2015-Sep-03 18:31N 37°55' W 122°22'0 0.0
2015-Sep-03 17:31N 37°55' W 122°22'0 0.0
2015-Sep-03 16:31N 37°55' W 122°22'0 0.0
2015-Sep-03 15:31N 37°55' W 122°22'0 0.0
2015-Sep-03 14:31N 37°55' W 122°22'0 0.0
2015-Sep-03 13:25N 37°55' W 122°22'0 0.0
2015-Sep-03 12:25N 37°55' W 122°22'0 0.0
2015-Sep-03 11:31N 37°55' W 122°22'0 0.0
2015-Sep-03 10:31N 37°55' W 122°22'0 0.0
2015-Sep-03 09:32N 37°55' W 122°22'3 3.3
2015-Sep-03 08:34N 37°52' W 122°24'5 5.0
2015-Sep-03 07:33N 37°49' W 122°19'0 0.0
2015-Sep-03 06:31N 37°49' W 122°19'0 0.0
2015-Sep-03 05:31N 37°49' W 122°19'0 0.0
2015-Sep-03 04:31N 37°49' W 122°19'0 0.0
2015-Sep-03 03:33N 37°49' W 122°19'3 3.1
2015-Sep-03 02:33N 37°46' W 122°20'0 0.0
2015-Sep-03 01:28N 37°46' W 122°20'0 0.0
2015-Sep-03 00:28N 37°46' W 122°20'0 0.1
2015-Sep-02 23:34N 37°46' W 122°20'0 0.1
2015-Sep-02 22:33N 37°46' W 122°20'4 4.3
2015-Sep-02 21:33N 37°48' W 122°24'0 0.0
2015-Sep-02 20:31N 37°48' W 122°24'0 0.0
2015-Sep-02 19:31N 37°48' W 122°24'0 0.0
2015-Sep-02 18:31N 37°48' W 122°24'0 0.0
2015-Sep-02 17:31N 37°48' W 122°24'0 0.0
2015-Sep-02 16:31N 37°48' W 122°24'0 0.0
2015-Sep-02 15:31N 37°48' W 122°24'0 0.0
2015-Sep-02 14:33N 37°48' W 122°24'3 2.6
2015-Sep-02 13:33N 37°48' W 122°21'3 2.9
2015-Sep-02 12:31N 37°48' W 122°17'0 0.0
2015-Sep-02 11:31N 37°48' W 122°17'0 0.0
2015-Sep-02 10:31N 37°48' W 122°17'0 0.0
2015-Sep-02 09:31N 37°48' W 122°17'0 0.0
2015-Sep-02 08:31N 37°48' W 122°17'0 0.0
2015-Sep-02 07:31N 37°48' W 122°17'0 0.0
2015-Sep-02 06:31N 37°48' W 122°17'0 0.0
2015-Sep-02 05:31N 37°48' W 122°17'0 0.0
2015-Sep-02 04:31N 37°48' W 122°17'0 0.0
2015-Sep-02 03:31N 37°48' W 122°17'0 0.0
2015-Sep-02 02:31N 37°48' W 122°17'0 0.0
2015-Sep-02 01:31N 37°48' W 122°17'0 0.0
2015-Sep-02 00:31N 37°48' W 122°17'0 0.0
2015-Sep-01 23:31N 37°48' W 122°17'0 0.0
2015-Sep-01 22:31N 37°48' W 122°17'0 0.0
2015-Sep-01 21:31N 37°48' W 122°17'0 0.0
2015-Sep-01 20:31N 37°48' W 122°17'0 0.0
2015-Sep-01 19:31N 37°48' W 122°17'0 0.0
2015-Sep-01 18:31N 37°48' W 122°17'0 0.0
2015-Sep-01 17:31N 37°48' W 122°17'0 0.1
2015-Sep-01 16:33N 37°48' W 122°17'6 5.8
2015-Sep-01 15:33N 37°51' W 122°23'4 4.1
2015-Sep-01 14:33N 37°55' W 122°22'0 0.1
2015-Sep-01 13:33N 37°55' W 122°22'0 0.0
2015-Sep-01 12:33N 37°55' W 122°22'0 0.0
2015-Sep-01 11:33N 37°55' W 122°22'0 0.0
2015-Sep-01 10:33N 37°55' W 122°22'0 0.0
2015-Sep-01 09:24N 37°55' W 122°22'0 0.0
2015-Sep-01 08:30N 37°55' W 122°22'0 0.0
2015-Sep-01 07:33N 37°55' W 122°22'0 0.0
2015-Sep-01 06:33N 37°55' W 122°22'0 0.0
2015-Sep-01 05:33N 37°55' W 122°22'0 0.0
2015-Sep-01 04:33N 37°55' W 122°22'0 0.0
2015-Sep-01 03:33N 37°55' W 122°22'0 0.0
2015-Sep-01 02:33N 37°55' W 122°22'0 0.0
2015-Sep-01 01:33N 37°55' W 122°22'0 0.0
2015-Sep-01 00:33N 37°55' W 122°22'0 0.0
2015-Aug-31 23:33N 37°55' W 122°22'3 3.4
2015-Aug-31 22:33N 37°52' W 122°24'7 6.8
2015-Aug-31 21:34N 37°48' W 122°17'0 0.1
2015-Aug-31 20:31N 37°48' W 122°17'0 0.0
2015-Aug-31 19:31N 37°48' W 122°17'0 0.0
2015-Aug-31 18:25N 37°48' W 122°17'0 0.0
2015-Aug-31 17:31N 37°48' W 122°17'0 0.0
2015-Aug-31 16:33N 37°48' W 122°17'0 0.0
2015-Aug-31 15:33N 37°48' W 122°17'0 0.0
2015-Aug-31 14:33N 37°48' W 122°17'0 0.0
2015-Aug-31 13:33N 37°48' W 122°17'0 0.0
2015-Aug-31 12:33N 37°48' W 122°17'0 0.0
2015-Aug-31 11:33N 37°48' W 122°17'0 0.0
2015-Aug-31 10:33N 37°48' W 122°17'0 0.0
2015-Aug-31 09:33N 37°48' W 122°17'0 0.0
2015-Aug-31 08:32N 37°48' W 122°17'0 0.0
2015-Aug-31 07:32N 37°48' W 122°17'0 0.0
2015-Aug-31 06:32N 37°48' W 122°17'0 0.0
2015-Aug-31 05:32N 37°48' W 122°17'0 0.0
2015-Aug-31 04:32N 37°48' W 122°17'0 0.0
2015-Aug-31 03:32N 37°48' W 122°17'0 0.0
2015-Aug-31 02:32N 37°48' W 122°17'0 0.0
2015-Aug-31 01:32N 37°48' W 122°17'0 0.0
2015-Aug-31 00:32N 37°48' W 122°17'0 0.0
2015-Aug-30 23:32N 37°48' W 122°17'0 0.0
2015-Aug-30 22:32N 37°48' W 122°17'2 2.5
2015-Aug-30 21:33N 37°48' W 122°20'3 3.1
2015-Aug-30 20:33N 37°48' W 122°24'0 0.0
2015-Aug-30 19:33N 37°48' W 122°24'0 0.1
2015-Aug-30 18:27N 37°48' W 122°24'0 0.1
2015-Aug-30 17:33N 37°48' W 122°24'0 0.0
2015-Aug-30 16:33N 37°48' W 122°24'0 0.0
2015-Aug-30 15:32N 37°48' W 122°24'0 0.0
2015-Aug-30 14:33N 37°48' W 122°24'0 0.4
2015-Aug-30 13:33N 37°49' W 122°24'5 5.2
2015-Aug-30 12:33N 37°54' W 122°25'3 2.6
2015-Aug-30 11:33N 37°55' W 122°22'0 0.0
2015-Aug-30 10:33N 37°55' W 122°22'0 0.0
2015-Aug-30 09:33N 37°55' W 122°22'0 0.0
2015-Aug-30 08:30N 37°55' W 122°22'0 0.0
2015-Aug-30 07:33N 37°55' W 122°22'0 0.0
2015-Aug-30 06:33N 37°55' W 122°22'0 0.0
2015-Aug-30 05:33N 37°55' W 122°22'0 0.0
2015-Aug-30 04:30N 37°55' W 122°22'0 0.0
2015-Aug-30 03:30N 37°55' W 122°22'0 0.0
2015-Aug-30 02:33N 37°55' W 122°22'0 0.0
2015-Aug-30 01:33N 37°55' W 122°22'0 0.0
2015-Aug-30 00:30N 37°55' W 122°22'0 0.0
2015-Aug-29 23:33N 37°55' W 122°22'0 0.0
2015-Aug-29 22:33N 37°55' W 122°22'0 0.0
2015-Aug-29 21:30N 37°55' W 122°22'0 0.0
2015-Aug-29 20:33N 37°55' W 122°22'0 0.0
2015-Aug-29 19:30N 37°55' W 122°22'0 0.0
2015-Aug-29 18:30N 37°55' W 122°22'0 0.0
2015-Aug-29 17:33N 37°55' W 122°22'0 0.0
2015-Aug-29 16:32N 37°55' W 122°22'0 0.0
2015-Aug-29 15:32N 37°55' W 122°22'0 0.0
2015-Aug-29 14:32N 37°55' W 122°22'0 0.0
2015-Aug-29 13:32N 37°55' W 122°22'0 0.0
2015-Aug-29 12:32N 37°55' W 122°22'0 0.0
2015-Aug-29 11:29N 37°55' W 122°22'1 0.7
2015-Aug-29 10:33N 37°54' W 122°22'6 6.3
2015-Aug-29 09:33N 37°48' W 122°22'2 1.9
2015-Aug-29 08:32N 37°46' W 122°21'0 0.3
2015-Aug-29 07:32N 37°46' W 122°21'0 0.1
2015-Aug-29 06:34N 37°46' W 122°21'2 2.3
2015-Aug-29 05:33N 37°44' W 122°20'1 0.9
2015-Aug-29 04:30N 37°43' W 122°19'0 0.1
2015-Aug-29 03:33N 37°43' W 122°19'0 0.1
2015-Aug-29 02:33N 37°43' W 122°19'0 0.0
2015-Aug-29 01:33N 37°43' W 122°19'3 3.1
2015-Aug-29 00:32N 37°46' W 122°20'0 0.1
2015-Aug-28 23:32N 37°46' W 122°20'0 0.0
2015-Aug-28 22:31N 37°46' W 122°20'0 0.0
2015-Aug-28 21:31N 37°46' W 122°20'0 0.0
2015-Aug-28 20:31N 37°46' W 122°20'1 1.0
2015-Aug-28 19:31N 37°45' W 122°21'0 0.0
2015-Aug-28 18:31N 37°45' W 122°21'0 0.0
2015-Aug-28 17:31N 37°45' W 122°21'0 0.0
2015-Aug-28 16:33N 37°45' W 122°21'0 0.0
2015-Aug-28 15:30N 37°45' W 122°21'0 0.0
2015-Aug-28 14:33N 37°45' W 122°21'0 0.2
2015-Aug-28 13:33N 37°46' W 122°21'0 0.1
2015-Aug-28 12:33N 37°46' W 122°21'0 0.0
2015-Aug-28 11:33N 37°46' W 122°21'2 2.4
2015-Aug-28 10:33N 37°48' W 122°22'7 6.7
2015-Aug-28 09:33N 37°54' W 122°24'2 1.7
2015-Aug-28 08:33N 37°55' W 122°22'0 0.0
2015-Aug-28 07:33N 37°55' W 122°22'0 0.0
2015-Aug-28 06:33N 37°55' W 122°22'0 0.0
2015-Aug-28 05:33N 37°55' W 122°22'0 0.0
2015-Aug-28 04:33N 37°55' W 122°22'0 0.0
2015-Aug-28 03:33N 37°55' W 122°22'0 0.0
2015-Aug-28 02:33N 37°55' W 122°22'0 0.0
2015-Aug-28 01:34N 37°55' W 122°22'4 4.3
2015-Aug-28 00:34N 37°51' W 122°23'7 7.2
2015-Aug-27 23:34N 37°44' W 122°20'0 0.1
2015-Aug-27 22:32N 37°44' W 122°20'0 0.0
2015-Aug-27 21:32N 37°44' W 122°20'0 0.1
2015-Aug-27 20:32N 37°44' W 122°20'0 0.2
2015-Aug-27 19:32N 37°44' W 122°20'0 0.1
2015-Aug-27 18:29N 37°44' W 122°20'0 0.0
2015-Aug-27 17:32N 37°44' W 122°20'0 0.0
2015-Aug-27 16:26N 37°44' W 122°20'0 0.0
2015-Aug-27 15:33N 37°44' W 122°20'7 7.2
2015-Aug-27 14:33N 37°50' W 122°23'5 4.7
2015-Aug-27 13:33N 37°55' W 122°22'0 0.0
2015-Aug-27 12:31N 37°55' W 122°22'0 0.0
2015-Aug-27 11:28N 37°55' W 122°22'0 0.0
2015-Aug-27 10:31N 37°55' W 122°22'0 0.0
2015-Aug-27 09:31N 37°55' W 122°22'0 0.0
2015-Aug-27 08:31N 37°55' W 122°22'0 0.0
2015-Aug-27 07:31N 37°55' W 122°22'3 2.9
2015-Aug-27 06:33N 37°53' W 122°24'9 8.8
2015-Aug-27 05:33N 37°45' W 122°20'0 0.2
2015-Aug-27 04:32N 37°45' W 122°20'0 0.0
2015-Aug-27 03:32N 37°45' W 122°20'0 0.0
2015-Aug-27 02:32N 37°45' W 122°20'0 0.0
2015-Aug-27 01:32N 37°45' W 122°20'0 0.0
2015-Aug-27 00:26N 37°45' W 122°20'0 0.1
2015-Aug-26 23:29N 37°45' W 122°20'0 0.2
2015-Aug-26 22:32N 37°45' W 122°20'0 0.0
2015-Aug-26 21:29N 37°45' W 122°20'0 0.0
2015-Aug-26 20:29N 37°45' W 122°20'2 2.0
2015-Aug-26 19:34N 37°47' W 122°21'7 6.6
2015-Aug-26 18:33N 37°53' W 122°24'3 2.5
2015-Aug-26 17:32N 37°55' W 122°22'0 0.0
2015-Aug-26 16:32N 37°55' W 122°22'  

Dump ship's entire track history